Time;durP1;ratioP1;P1;durP2;ratioP2;P2;SDS_P1;SDS_P2;PMS_P1;PMS_P2;Temp;Humidity;BMP_temperature;BMP_pressure;BME280_temperature;BME280_humidity;BME280_pressure;Samples;Min_cycle;Max_cycle;Signal;HPM_P1;HPM_P2
2022/06/17 00:01:36;;;;;;;11.38;6.68;;;17.70;99.90;;;;;;5051184;28;20036;-48
2022/06/17 00:04:01;;;;;;;9.35;6.40;;;17.70;99.90;;;;;;5069909;28;20085;-43
2022/06/17 00:06:34;;;;;;;10.60;6.40;;;17.60;99.90;;;;;;5069854;28;20043;-48
2022/06/17 00:09:00;;;;;;;12.07;6.97;;;17.60;99.90;;;;;;5069557;28;20037;-48
2022/06/17 00:11:31;;;;;;;11.57;6.88;;;17.60;99.90;;;;;;5068926;28;20037;-46
2022/06/17 00:13:57;;;;;;;11.02;7.13;;;17.60;99.90;;;;;;5069528;28;20107;-48
2022/06/17 00:16:24;;;;;;;11.90;6.88;;;17.50;99.90;;;;;;5068742;28;20067;-45
2022/06/17 00:18:50;;;;;;;10.75;6.75;;;17.40;99.90;;;;;;5069547;28;20036;-47
2022/06/17 00:21:30;;;;;;;10.48;6.57;;;17.40;99.90;;;;;;5069282;28;20040;-46
2022/06/17 00:23:56;;;;;;;12.75;6.45;;;17.40;99.90;;;;;;5051819;28;20464;-48
2022/06/17 00:26:22;;;;;;;11.10;6.25;;;17.30;99.90;;;;;;5051503;28;20235;-46
2022/06/17 00:28:48;;;;;;;9.80;6.93;;;17.30;99.90;;;;;;5068258;28;20060;-44
2022/06/17 00:31:15;;;;;;;10.95;6.95;;;17.30;99.90;;;;;;5051852;28;20499;-45
2022/06/17 00:33:41;;;;;;;13.40;7.25;;;17.20;99.90;;;;;;5069747;28;20537;-44
2022/06/17 00:36:13;;;;;;;10.63;6.80;;;17.20;99.90;;;;;;5069833;28;20063;-46
2022/06/17 00:38:39;;;;;;;10.60;6.90;;;17.20;99.90;;;;;;5069907;28;20433;-47
2022/06/17 00:41:32;;;;;;;8.95;6.97;;;17.10;99.90;;;;;;5069249;28;20036;-45
2022/06/17 00:44:01;;;;;;;8.60;6.57;;;17.20;99.90;;;;;;5051431;28;20037;-45
2022/06/17 00:46:44;;;;;;;12.25;7.22;;;17.10;99.90;;;;;;5069858;28;20037;-44
2022/06/17 00:49:29;;;;;;;10.03;6.80;;;17.10;99.90;;;;;;5055169;28;20048;-47
2022/06/17 00:52:07;;;;;;;9.38;6.95;;;17.00;99.90;;;;;;5073414;28;20365;-48
2022/06/17 00:54:41;;;;;;;10.52;7.70;;;17.00;99.90;;;;;;5073342;28;20373;-49
2022/06/17 00:57:26;;;;;;;;;;;16.90;99.90;;;;;;5073475;28;20032;-47
2022/06/17 01:00:10;;;;;;;10.30;7.43;;;16.90;99.90;;;;;;5073381;28;20371;-46
2022/06/17 01:02:42;;;;;;;11.65;7.70;;;16.90;99.90;;;;;;5073217;28;20219;-47
2022/06/17 01:05:10;;;;;;;9.90;7.63;;;16.80;99.90;;;;;;5054888;28;20059;-45
2022/06/17 01:08:12;;;;;;;11.27;7.80;;;16.80;99.90;;;;;;5072086;28;20498;-47
2022/06/17 01:10:45;;;;;;;12.75;7.80;;;16.80;99.90;;;;;;5072464;28;20072;-46
2022/06/17 01:13:11;;;;;;;11.65;8.18;;;16.80;99.90;;;;;;5073008;28;20036;-46
2022/06/17 01:15:40;;;;;;;13.43;8.15;;;16.70;99.90;;;;;;5072456;28;20133;-47
2022/06/17 01:18:07;;;;;;;11.80;8.18;;;16.80;99.90;;;;;;5072839;28;20029;-46
2022/06/17 01:20:35;;;;;;;11.65;7.95;;;16.70;99.90;;;;;;5072640;28;20036;-46
2022/06/17 01:23:08;;;;;;;13.20;8.43;;;16.70;99.90;;;;;;5072763;28;20086;-46
2022/06/17 01:25:39;;;;;;;17.13;7.83;;;16.60;99.90;;;;;;5072176;28;20033;-46
2022/06/17 01:28:11;;;;;;;14.35;8.98;;;16.60;99.90;;;;;;5072527;28;20454;-47
2022/06/17 01:30:58;;;;;;;11.70;8.05;;;16.60;99.90;;;;;;5072715;28;20044;-46
2022/06/17 01:33:30;;;;;;;13.27;8.77;;;16.60;99.90;;;;;;5072700;28;20524;-45
2022/06/17 01:36:05;;;;;;;13.52;8.77;;;16.50;99.90;;;;;;5072433;28;20033;-46
2022/06/17 01:38:31;;;;;;;;;;;16.50;99.90;;;;;;5055065;28;20036;-45
2022/06/17 01:40:59;;;;;;;11.35;8.93;;;16.40;99.90;;;;;;5072113;28;20011;-47
2022/06/17 01:43:47;;;;;;;10.77;8.50;;;16.30;99.90;;;;;;5072013;28;20040;-45
2022/06/17 01:46:21;;;;;;;12.80;9.25;;;16.30;99.90;;;;;;5071832;28;20033;-47
2022/06/17 01:48:59;;;;;;;12.30;9.40;;;16.30;99.90;;;;;;5072163;28;20111;-45
2022/06/17 01:51:28;;;;;;;15.95;9.07;;;16.30;99.90;;;;;;5071710;28;20032;-46
2022/06/17 01:53:58;;;;;;;13.13;9.25;;;16.30;99.90;;;;;;5071915;28;20041;-45
2022/06/17 01:56:34;;;;;;;11.43;9.52;;;16.30;99.90;;;;;;5071755;28;20033;-47
2022/06/17 01:59:02;;;;;;;13.70;9.45;;;16.30;99.90;;;;;;5072274;28;20033;-46
2022/06/17 02:01:31;;;;;;;13.27;9.70;;;16.30;99.90;;;;;;5072137;28;20125;-47
2022/06/17 02:04:02;;;;;;;14.63;9.77;;;16.30;99.90;;;;;;5071867;28;20090;-47
2022/06/17 02:06:40;;;;;;;15.85;9.55;;;16.30;99.90;;;;;;5071503;28;20107;-49
2022/06/17 02:09:06;;;;;;;15.95;10.32;;;16.30;99.90;;;;;;5071633;28;20040;-45
2022/06/17 02:11:33;;;;;;;13.50;9.98;;;16.20;99.90;;;;;;5071499;28;20040;-44
2022/06/17 02:14:00;;;;;;;13.88;10.55;;;16.30;99.90;;;;;;5071627;28;20048;-45
2022/06/17 02:16:26;;;;;;;13.98;9.82;;;16.10;99.90;;;;;;5053518;28;20078;-49
2022/06/17 02:18:54;;;;;;;14.48;10.43;;;16.10;99.90;;;;;;5071928;28;20047;-46
2022/06/17 02:21:26;;;;;;;13.98;10.50;;;16.20;99.90;;;;;;5053883;28;20044;-46
2022/06/17 02:23:53;;;;;;;15.20;9.88;;;16.10;99.90;;;;;;5053602;28;20068;-49
2022/06/17 02:26:20;;;;;;;15.18;10.48;;;16.00;99.90;;;;;;5071322;28;20443;-47
2022/06/17 02:28:47;;;;;;;14.48;10.93;;;16.10;99.90;;;;;;5053354;28;20044;-47
2022/06/17 02:31:14;;;;;;;14.10;10.05;;;16.00;99.90;;;;;;5071366;28;20090;-45
2022/06/17 02:33:41;;;;;;;15.23;10.77;;;16.00;99.90;;;;;;5071772;28;20361;-46
2022/06/17 02:36:17;;;;;;;15.13;10.30;;;16.00;99.90;;;;;;5071562;28;20425;-47
2022/06/17 02:38:44;;;;;;;15.65;10.23;;;16.00;99.90;;;;;;5071504;28;20044;-44
2022/06/17 02:41:17;;;;;;;14.30;11.10;;;16.00;99.90;;;;;;5070841;28;20037;-47
2022/06/17 02:43:55;;;;;;;14.82;10.80;;;16.00;99.90;;;;;;5071479;28;20476;-46
2022/06/17 02:46:32;;;;;;;13.35;10.57;;;16.00;99.90;;;;;;5052930;28;20044;-48
2022/06/17 02:49:01;;;;;;;17.02;11.30;;;16.00;99.90;;;;;;5053348;28;20040;-46
2022/06/17 02:51:31;;;;;;;16.23;11.30;;;15.90;99.90;;;;;;5068178;28;20543;-46
2022/06/17 02:53:58;;;;;;;17.15;11.27;;;15.90;99.90;;;;;;5070798;28;20040;-47
2022/06/17 02:56:27;;;;;;;15.00;11.10;;;15.90;99.90;;;;;;5051725;28;20476;-46
2022/06/17 02:59:12;;;;;;;17.02;11.00;;;15.80;99.90;;;;;;5071128;28;20074;-49
2022/06/17 03:01:40;;;;;;;13.90;10.50;;;15.90;99.90;;;;;;5070513;28;20131;-47
2022/06/17 03:04:16;;;;;;;14.07;10.43;;;15.90;99.90;;;;;;5070465;28;20048;-45
2022/06/17 03:06:45;;;;;;;14.18;10.70;;;15.90;99.90;;;;;;5070506;28;20364;-49
2022/06/17 03:09:24;;;;;;;16.38;10.75;;;15.80;99.90;;;;;;5070356;28;20384;-45
2022/06/17 03:11:56;;;;;;;14.93;10.35;;;15.90;99.90;;;;;;5070399;28;20044;-46
2022/06/17 03:14:25;;;;;;;14.93;10.95;;;15.90;99.90;;;;;;5052652;28;20036;-47
2022/06/17 03:16:57;;;;;;;16.00;10.77;;;15.80;99.90;;;;;;5070154;28;20072;-47
2022/06/17 03:19:25;;;;;;;16.42;10.98;;;15.80;99.90;;;;;;5070667;28;20059;-46
2022/06/17 03:21:51;;;;;;;15.52;11.68;;;15.90;99.90;;;;;;5070600;28;20040;-49
2022/06/17 03:24:30;;;;;;;14.82;10.57;;;15.80;99.90;;;;;;5070503;28;20048;-48
2022/06/17 03:27:09;;;;;;;15.18;10.85;;;15.80;99.90;;;;;;5069881;28;20040;-44
2022/06/17 03:29:37;;;;;;;15.50;10.55;;;15.70;99.90;;;;;;5070112;28;20052;-46
2022/06/17 03:32:07;;;;;;;14.57;10.80;;;15.70;99.90;;;;;;5070164;28;20484;-44
2022/06/17 03:34:43;;;;;;;16.30;11.05;;;15.70;99.90;;;;;;5070127;28;20039;-48
2022/06/17 03:37:22;;;;;;;14.63;11.02;;;15.70;99.90;;;;;;5070447;28;20545;-49
2022/06/17 03:39:52;;;;;;;15.05;11.48;;;15.70;99.90;;;;;;5070297;28;20040;-47
2022/06/17 03:42:21;;;;;;;16.63;10.93;;;15.60;99.90;;;;;;5069023;28;20047;-47
2022/06/17 03:45:04;;;;;;;17.20;11.25;;;15.70;99.90;;;;;;5068381;28;20097;-48
2022/06/17 03:47:59;;;;;;;16.90;10.85;;;15.60;99.90;;;;;;5051407;28;20527;-46
2022/06/17 03:50:32;;;;;;;18.88;11.38;;;15.70;99.90;;;;;;5070391;28;20068;-48
2022/06/17 03:53:02;;;;;;;13.75;11.02;;;15.60;99.90;;;;;;5068478;28;20178;-48
2022/06/17 03:55:29;;;;;;;16.02;10.48;;;15.70;99.90;;;;;;5052280;28;20037;-48
2022/06/17 03:57:56;;;;;;;13.82;10.35;;;15.70;99.90;;;;;;5069925;28;20125;-49
2022/06/17 04:00:30;;;;;;;19.67;11.43;;;15.80;99.90;;;;;;5069845;28;20053;-45
2022/06/17 04:02:58;;;;;;;19.48;10.57;;;15.80;99.90;;;;;;5070180;28;20048;-48
2022/06/17 04:05:24;;;;;;;14.18;10.38;;;15.80;99.90;;;;;;5051867;28;20040;-47
2022/06/17 04:07:50;;;;;;;14.55;10.32;;;15.80;99.90;;;;;;5069829;28;20132;-48
2022/06/17 04:10:21;;;;;;;16.13;11.00;;;15.90;99.90;;;;;;5069950;28;20128;-46
2022/06/17 04:12:49;;;;;;;14.40;10.77;;;16.00;99.90;;;;;;5069285;28;20444;-46
2022/06/17 04:15:36;;;;;;;14.25;10.73;;;16.00;99.90;;;;;;5069632;28;20482;-48
2022/06/17 04:18:02;;;;;;;13.52;10.10;;;16.00;99.90;;;;;;5070070;28;20039;-46
2022/06/17 04:20:51;;;;;;;13.40;10.00;;;16.10;99.90;;;;;;5051880;28;20045;-46
2022/06/17 04:23:24;;;;;;;14.27;10.85;;;16.10;99.90;;;;;;5055770;28;20051;-45
2022/06/17 04:25:49;;;;;;;16.35;10.75;;;16.10;99.90;;;;;;5073654;28;20127;-49
2022/06/17 04:28:20;;;;;;;13.40;10.32;;;16.20;99.90;;;;;;5055497;28;20119;-48
2022/06/17 04:30:50;;;;;;;15.60;10.32;;;16.20;99.90;;;;;;5073462;28;20044;-49
2022/06/17 04:33:25;;;;;;;14.52;10.38;;;16.20;99.90;;;;;;5055670;28;20044;-46
2022/06/17 04:36:03;;;;;;;14.52;10.45;;;16.30;99.90;;;;;;5055468;28;20169;-45
2022/06/17 04:38:34;;;;;;;12.38;10.13;;;16.40;99.90;;;;;;5073561;28;20041;-46
2022/06/17 04:41:02;;;;;;;11.73;9.93;;;16.30;99.90;;;;;;5073784;28;20182;-47
2022/06/17 04:43:35;;;;;;;13.45;10.32;;;16.30;99.90;;;;;;5072984;28;20472;-45
2022/06/17 04:46:16;;;;;;;14.40;9.85;;;16.40;99.90;;;;;;5072716;28;20071;-46
2022/06/17 04:48:42;;;;;;;11.60;9.10;;;16.40;99.90;;;;;;5073459;28;20044;-47
2022/06/17 04:51:09;;;;;;;13.43;9.82;;;16.50;99.90;;;;;;5073041;28;20044;-47
2022/06/17 04:53:38;;;;;;;14.05;9.75;;;16.50;99.90;;;;;;5073340;28;20032;-45
2022/06/17 04:56:08;;;;;;;11.13;9.20;;;16.60;99.90;;;;;;5055141;28;20157;-45
2022/06/17 04:58:33;;;;;;;11.90;9.70;;;16.60;99.90;;;;;;5055111;28;20032;-46
2022/06/17 05:00:59;;;;;;;14.20;10.00;;;16.60;99.90;;;;;;5073353;28;20356;-47
2022/06/17 05:03:29;;;;;;;12.63;9.55;;;16.70;99.90;;;;;;5073224;28;20047;-48
2022/06/17 05:05:55;;;;;;;15.57;10.60;;;16.80;99.90;;;;;;5073201;28;20491;-46
2022/06/17 05:08:27;;;;;;;13.88;9.43;;;16.80;99.90;;;;;;5038596;28;20476;-46
2022/06/17 05:11:00;;;;;;;14.95;10.05;;;16.70;99.90;;;;;;5072718;28;20555;-49
2022/06/17 05:13:28;;;;;;;14.13;10.40;;;16.80;99.90;;;;;;5072809;28;20037;-47
2022/06/17 05:15:54;;;;;;;16.48;10.63;;;16.80;99.90;;;;;;5072446;28;20387;-46
2022/06/17 05:18:21;;;;;;;13.23;9.90;;;16.90;99.90;;;;;;5054829;28;20044;-46
2022/06/17 05:20:47;;;;;;;13.27;10.10;;;16.90;99.90;;;;;;5054816;28;20040;-45
2022/06/17 05:23:15;;;;;;;14.60;10.20;;;16.90;99.90;;;;;;5072266;28;20466;-46
2022/06/17 05:25:44;;;;;;;15.45;10.55;;;16.90;99.90;;;;;;5072756;28;20444;-46
2022/06/17 05:28:17;;;;;;;14.32;10.50;;;17.00;99.90;;;;;;5072625;28;20093;-46
2022/06/17 05:30:51;;;;;;;15.47;10.83;;;17.00;99.90;;;;;;5072687;28;20080;-48
2022/06/17 05:33:18;;;;;;;11.85;9.90;;;17.00;99.90;;;;;;5071615;28;20310;-44
2022/06/17 05:35:44;;;;;;;17.50;11.75;;;17.10;99.90;;;;;;5072343;28;20037;-46
2022/06/17 05:38:10;;;;;;;14.38;9.85;;;17.00;99.90;;;;;;5072659;28;20044;-46
2022/06/17 05:40:38;;;;;;;13.48;10.70;;;17.10;99.90;;;;;;5072255;28;20032;-44
2022/06/17 05:43:04;;;;;;;14.27;10.65;;;17.10;99.90;;;;;;5072331;28;20040;-44
2022/06/17 05:45:30;;;;;;;13.38;10.75;;;17.20;99.90;;;;;;5072082;28;20101;-47
2022/06/17 05:47:56;;;;;;;14.25;10.73;;;17.10;99.90;;;;;;5053233;28;20028;-45
2022/06/17 05:50:24;;;;;;;17.55;11.13;;;17.20;99.90;;;;;;5071801;28;20045;-45
2022/06/17 05:52:52;;;;;;;11.98;10.43;;;17.20;99.90;;;;;;5072028;28;20052;-45
2022/06/17 05:55:19;;;;;;;18.38;10.75;;;17.30;99.90;;;;;;5071882;28;20047;-46
2022/06/17 05:57:45;;;;;;;12.65;10.35;;;17.30;99.90;;;;;;5072368;28;20054;-46
2022/06/17 06:00:13;;;;;;;13.77;10.52;;;17.40;99.90;;;;;;5072362;28;20506;-45
2022/06/17 06:02:39;;;;;;;12.15;9.63;;;17.40;99.90;;;;;;5072056;28;20047;-46
2022/06/17 06:05:05;;;;;;;20.38;10.57;;;17.50;99.90;;;;;;5054141;28;20471;-45
2022/06/17 06:07:31;;;;;;;14.45;10.45;;;17.50;99.90;;;;;;5071106;28;20450;-47
2022/06/17 06:09:57;;;;;;;14.30;10.73;;;17.60;99.90;;;;;;5072123;28;20123;-46
2022/06/17 06:12:22;;;;;;;15.70;11.05;;;17.60;99.90;;;;;;5071383;28;20155;-46
2022/06/17 06:14:48;;;;;;;14.20;10.80;;;17.70;99.90;;;;;;5071918;28;20033;-45
2022/06/17 06:17:14;;;;;;;14.52;10.40;;;17.80;99.90;;;;;;5071849;28;20036;-47
2022/06/17 06:19:39;;;;;;;13.18;10.15;;;17.90;99.90;;;;;;5071708;28;20036;-46
2022/06/17 06:22:05;;;;;;;15.10;10.63;;;18.00;99.90;;;;;;5053478;28;20037;-47
2022/06/17 06:24:31;;;;;;;16.17;10.88;;;18.00;99.90;;;;;;5071483;28;20040;-49
2022/06/17 06:26:56;;;;;;;15.00;10.60;;;18.10;99.90;;;;;;5052182;28;20361;-47
2022/06/17 06:29:22;;;;;;;13.98;9.50;;;18.20;99.90;;;;;;5071347;28;20063;-48
2022/06/17 06:31:48;;;;;;;14.27;10.20;;;18.30;99.90;;;;;;5071153;28;20044;-44
2022/06/17 06:34:16;;;;;;;13.90;9.80;;;18.30;99.90;;;;;;5071476;28;20098;-47
2022/06/17 06:36:42;;;;;;;17.02;10.57;;;18.50;99.90;;;;;;5071157;28;20112;-44
2022/06/17 06:39:08;;;;;;;14.40;10.10;;;18.60;99.90;;;;;;5053015;28;20048;-46
2022/06/17 06:41:34;;;;;;;17.30;9.95;;;18.70;99.90;;;;;;5071358;28;20504;-46
2022/06/17 06:44:00;;;;;;;15.23;9.98;;;18.80;99.90;;;;;;5070512;28;20083;-48
2022/06/17 06:46:26;;;;;;;16.48;9.95;;;18.80;99.90;;;;;;5070626;28;20066;-46
2022/06/17 06:48:52;;;;;;;17.33;10.02;;;18.90;99.90;;;;;;5070893;28;20064;-46
2022/06/17 06:51:19;;;;;;;18.52;10.73;;;18.90;99.90;;;;;;5070876;28;20072;-46
2022/06/17 06:53:45;;;;;;;16.55;10.00;;;19.00;99.90;;;;;;5070593;28;20046;-45
2022/06/17 06:56:11;;;;;;;15.35;9.30;;;19.00;99.90;;;;;;5069782;28;20033;-44
2022/06/17 06:58:38;;;;;;;18.52;9.98;;;19.00;99.90;;;;;;5070984;28;20029;-45
2022/06/17 07:01:04;;;;;;;17.45;9.13;;;19.10;99.90;;;;;;5070610;28;20074;-47
2022/06/17 07:03:30;;;;;;;17.90;10.00;;;19.10;99.90;;;;;;5069240;28;20041;-48
2022/06/17 07:06:02;;;;;;;15.20;8.57;;;19.30;99.90;;;;;;5070873;28;20130;-46
2022/06/17 07:08:30;;;;;;;16.33;9.07;;;19.40;99.90;;;;;;5069822;28;20063;-46
2022/06/17 07:10:59;;;;;;;18.88;9.07;;;19.50;99.90;;;;;;5070259;28;20541;-46
2022/06/17 07:13:29;;;;;;;15.85;8.43;;;19.50;99.90;;;;;;5070374;28;20033;-45
2022/06/17 07:15:55;;;;;;;11.57;7.20;;;19.50;99.90;;;;;;5070223;28;20075;-50
2022/06/17 07:18:29;;;;;;;11.65;7.72;;;19.50;99.90;;;;;;5070377;28;20078;-48
2022/06/17 07:20:58;;;;;;;11.73;7.10;;;19.60;99.90;;;;;;5070837;28;20479;-48
2022/06/17 07:23:33;;;;;;;12.00;7.50;;;19.70;99.90;;;;;;5052247;28;20048;-46
2022/06/17 07:26:02;;;;;;;12.82;6.65;;;19.70;99.90;;;;;;5070501;28;20059;-45
2022/06/17 07:28:28;;;;;;;11.90;6.88;;;19.80;99.90;;;;;;5069971;28;20458;-45
2022/06/17 07:30:55;;;;;;;12.68;6.25;;;19.90;99.90;;;;;;5070385;28;20093;-45
2022/06/17 07:33:23;;;;;;;12.20;6.15;;;20.00;99.90;;;;;;5070059;28;20124;-49
2022/06/17 07:35:53;;;;;;;10.48;6.20;;;20.00;99.90;;;;;;5051830;28;20036;-49
2022/06/17 07:41:07;;;;;;;10.90;6.22;;;20.30;99.90;;;;;;5070100;28;20039;-45
2022/06/17 07:43:33;;;;;;;10.45;6.10;;;20.30;99.90;;;;;;5052228;28;20123;-47
2022/06/17 07:46:01;;;;;;;9.50;6.30;;;20.30;99.90;;;;;;5069934;28;20490;-47
2022/06/17 07:48:27;;;;;;;12.27;6.10;;;20.40;99.90;;;;;;5069771;28;20040;-47
2022/06/17 07:50:58;;;;;;;10.80;6.03;;;20.30;99.90;;;;;;5069918;28;20053;-46
2022/06/17 07:53:25;;;;;;;12.25;6.30;;;20.30;99.90;;;;;;5070065;28;20087;-46
2022/06/17 07:55:52;;;;;;;11.35;6.70;;;20.40;99.90;;;;;;5070012;28;20421;-47
2022/06/17 07:58:18;;;;;;;11.13;6.00;;;20.40;99.90;;;;;;5069136;28;20179;-47
2022/06/17 08:00:45;;;;;;;11.88;6.45;;;20.40;99.90;;;;;;5069750;28;20120;-46
2022/06/17 08:03:14;;;;;;;10.68;6.55;;;20.40;99.90;;;;;;5069841;28;20063;-49
2022/06/17 08:05:42;;;;;;;10.52;6.20;;;20.40;99.90;;;;;;5069806;28;20625;-50
2022/06/17 08:08:09;;;;;;;12.13;6.20;;;20.40;99.90;;;;;;5070056;28;20043;-45
2022/06/17 08:10:36;;;;;;;8.77;5.40;;;20.60;99.90;;;;;;5070078;28;20395;-50
2022/06/17 08:13:06;;;;;;;16.88;6.10;;;20.60;99.90;;;;;;5069709;28;20432;-46
2022/06/17 08:15:33;;;;;;;11.50;5.43;;;20.70;99.90;;;;;;5069568;28;22028;-46
2022/06/17 08:18:00;;;;;;;9.32;5.55;;;20.90;99.90;;;;;;5069913;28;20068;-46
2022/06/17 08:20:31;;;;;;;11.95;6.10;;;21.00;99.90;;;;;;5070064;28;20040;-48
2022/06/17 08:22:57;;;;;;;13.88;6.40;;;21.20;99.90;;;;;;5069746;28;20045;-46
2022/06/17 08:25:23;;;;;;;9.40;5.90;;;21.30;99.90;;;;;;5069863;28;20075;-48
2022/06/17 08:27:54;;;;;;;10.25;5.97;;;21.50;99.90;;;;;;5069368;28;20167;-48
2022/06/17 08:30:25;;;;;;;11.18;5.60;;;21.70;99.90;;;;;;5068548;28;20059;-47
2022/06/17 08:32:53;;;;;;;9.40;5.43;;;21.90;99.90;;;;;;5069699;28;20048;-46
2022/06/17 08:35:24;;;;;;;9.68;5.30;;;22.00;99.90;;;;;;5069851;28;20536;-46
2022/06/17 08:38:02;;;;;;;12.30;5.38;;;22.10;99.90;;;;;;5069349;28;20043;-48
2022/06/17 08:40:50;;;;;;;10.90;5.22;;;22.10;99.90;;;;;;5069383;28;20166;-47
2022/06/17 08:43:35;;;;;;;8.68;5.28;;;22.00;99.90;;;;;;5069081;28;20033;-44
2022/06/17 08:46:22;;;;;;;10.43;5.03;;;22.00;99.90;;;;;;5051024;28;20047;-46
2022/06/17 08:49:09;;;;;;;7.50;4.50;;;21.90;99.90;;;;;;5051701;28;20044;-47
2022/06/17 08:51:43;;;;;;;9.82;5.45;;;22.10;99.90;;;;;;5069362;28;20044;-47
2022/06/17 08:54:15;;;;;;;9.93;4.95;;;22.20;99.90;;;;;;5069189;28;20024;-49
2022/06/17 08:56:54;;;;;;;9.70;5.00;;;22.40;99.90;;;;;;5051157;28;20044;-45
2022/06/17 08:59:29;;;;;;;8.13;4.70;;;22.50;99.80;;;;;;5051368;28;20036;-49
2022/06/17 09:02:00;;;;;;;8.38;4.40;;;22.40;99.90;;;;;;5069627;28;20036;-46
2022/06/17 09:04:51;;;;;;;7.15;4.55;;;22.60;99.90;;;;;;5069280;28;20041;-48
2022/06/17 09:07:35;;;;;;;9.73;4.65;;;22.80;99.90;;;;;;5068949;28;20028;-45
2022/06/17 09:10:27;;;;;;;8.45;4.53;;;22.90;99.70;;;;;;5072771;28;20029;-47
2022/06/17 09:13:19;;;;;;;8.82;4.45;;;23.10;99.90;;;;;;5072837;28;20425;-45
2022/06/17 09:15:52;;;;;;;7.43;4.57;;;23.30;98.80;;;;;;5060725;28;20048;-47
2022/06/17 09:18:37;;;;;;;6.78;4.18;;;23.40;98.60;;;;;;5072944;28;20480;-51
2022/06/17 09:21:14;;;;;;;7.28;4.07;;;23.50;99.10;;;;;;5072772;28;20076;-44
2022/06/17 09:23:41;;;;;;;12.65;4.13;;;23.70;98.50;;;;;;5072979;28;20029;-47
2022/06/17 09:26:18;;;;;;;8.77;3.13;;;23.50;98.50;;;;;;5072447;28;20063;-46
2022/06/17 09:28:55;;;;;;;7.50;3.30;;;23.60;98.50;;;;;;5071925;28;20056;-47
2022/06/17 09:31:28;;;;;;;7.18;3.38;;;23.70;99.30;;;;;;5072577;28;20392;-45
2022/06/17 09:34:04;;;;;;;9.10;3.80;;;24.00;98.20;;;;;;5072273;28;20037;-48
2022/06/17 09:36:43;;;;;;;8.25;3.25;;;24.00;97.50;;;;;;5054453;28;20110;-48
2022/06/17 09:39:15;;;;;;;11.77;3.78;;;24.10;97.40;;;;;;5072393;28;20093;-46
2022/06/17 09:41:51;;;;;;;8.32;3.95;;;24.10;97.90;;;;;;5072016;28;20115;-46
2022/06/17 09:44:22;;;;;;;8.20;3.90;;;24.20;97.70;;;;;;5071857;28;20076;-50
2022/06/17 09:47:07;;;;;;;10.35;3.75;;;24.30;97.00;;;;;;5071687;28;20048;-46
2022/06/17 09:49:55;;;;;;;6.72;3.30;;;24.50;97.30;;;;;;5054200;28;20080;-45
2022/06/17 09:52:43;;;;;;;7.00;3.40;;;24.40;96.30;;;;;;5072336;28;20045;-46
2022/06/17 09:55:16;;;;;;;8.98;4.25;;;24.40;96.70;;;;;;5058334;28;20040;-46
2022/06/17 09:58:02;;;;;;;7.80;3.45;;;24.40;96.70;;;;;;5072242;28;20080;-47
2022/06/17 10:00:36;;;;;;;6.65;3.63;;;24.40;96.60;;;;;;5072122;28;20037;-46
2022/06/17 10:03:20;;;;;;;9.43;3.85;;;24.30;96.80;;;;;;5053872;28;20036;-46
2022/06/17 10:05:56;;;;;;;7.32;3.67;;;24.50;95.90;;;;;;5071822;28;20040;-46
2022/06/17 10:08:48;;;;;;;6.32;3.55;;;24.50;95.90;;;;;;5071293;28;20167;-47
2022/06/17 10:11:42;;;;;;;6.85;4.43;;;24.50;96.90;;;;;;5066951;28;20492;-48
2022/06/17 10:14:13;;;;;;;7.00;3.47;;;24.40;95.70;;;;;;5053960;28;20040;-48
2022/06/17 10:20:07;;;;;;;8.48;4.47;;;24.50;97.80;;;;;;5070651;28;20434;-49
2022/06/17 10:22:48;;;;;;;8.95;4.60;;;24.60;96.50;;;;;;5071602;28;20106;-45
2022/06/17 10:25:33;;;;;;;13.40;4.40;;;24.60;97.80;;;;;;5053432;28;20484;-49
2022/06/17 10:28:13;;;;;;;9.60;4.38;;;24.70;96.90;;;;;;5071660;28;20032;-44
2022/06/17 10:30:58;;;;;;;6.63;3.53;;;24.70;96.00;;;;;;5071129;28;20052;-49
2022/06/17 10:33:25;;;;;;;21.85;4.88;;;24.80;96.60;;;;;;5071100;28;20044;-45
2022/06/17 10:35:51;;;;;;;9.43;3.97;;;24.80;96.60;;;;;;5071013;28;20169;-46
2022/06/17 10:38:24;;;;;;;9.55;4.20;;;24.80;95.60;;;;;;5071182;28;20115;-46
2022/06/17 10:40:50;;;;;;;7.03;3.53;;;25.00;96.10;;;;;;5071165;28;20525;-46
2022/06/17 10:43:21;;;;;;;9.27;3.60;;;25.20;96.40;;;;;;5053371;28;20036;-44
2022/06/17 10:45:51;;;;;;;8.10;3.47;;;25.20;95.50;;;;;;5070849;28;20037;-44
2022/06/17 10:48:34;;;;;;;11.32;3.85;;;25.40;95.90;;;;;;5071457;28;20491;-47
2022/06/17 10:51:02;;;;;;;8.02;4.03;;;25.50;95.90;;;;;;5071019;28;20484;-45
2022/06/17 10:53:51;;;;;;;9.25;3.45;;;25.80;96.40;;;;;;5052733;28;20068;-47
2022/06/17 10:56:27;;;;;;;7.03;3.10;;;25.60;93.90;;;;;;5070918;28;20041;-45
2022/06/17 10:58:58;;;;;;;7.65;3.20;;;25.70;95.20;;;;;;5069706;28;20036;-50
2022/06/17 11:01:25;;;;;;;6.22;3.33;;;25.70;94.40;;;;;;5070446;28;20578;-45
2022/06/17 11:04:11;;;;;;;10.60;3.55;;;25.70;94.30;;;;;;5070687;28;20032;-48
2022/06/17 11:06:47;;;;;;;5.82;2.65;;;25.70;94.50;;;;;;5070896;28;20075;-48
2022/06/17 11:09:22;;;;;;;7.13;3.28;;;25.80;94.40;;;;;;5070624;28;20062;-47
2022/06/17 11:12:02;;;;;;;7.22;3.20;;;25.80;94.40;;;;;;5070751;28;20041;-46
2022/06/17 11:14:37;;;;;;;7.35;3.67;;;25.80;94.60;;;;;;5070929;28;20040;-48
2022/06/17 11:17:30;;;;;;;6.10;3.25;;;25.80;94.60;;;;;;5070409;28;20065;-46
2022/06/17 11:19:58;;;;;;;6.20;2.80;;;25.90;94.30;;;;;;5052918;28;20052;-45
2022/06/17 11:22:35;;;;;;;6.47;3.00;;;25.90;93.30;;;;;;5071038;28;20083;-46
2022/06/17 11:25:19;;;;;;;6.43;3.33;;;26.10;94.80;;;;;;5070706;28;20505;-44
2022/06/17 11:27:53;;;;;;;8.60;3.78;;;26.10;94.20;;;;;;5070670;28;20060;-47
2022/06/17 11:30:21;;;;;;;5.72;3.28;;;26.10;93.70;;;;;;5069678;28;20525;-47
2022/06/17 11:32:47;;;;;;;6.70;3.25;;;26.10;93.90;;;;;;5070277;28;20115;-48
2022/06/17 11:35:18;;;;;;;7.60;3.67;;;26.10;93.20;;;;;;5070338;28;20112;-46
2022/06/17 11:37:47;;;;;;;8.88;3.15;;;26.20;93.40;;;;;;5070054;28;20071;-48
2022/06/17 11:40:17;;;;;;;5.88;3.55;;;26.70;94.00;;;;;;5051274;28;20484;-48
2022/06/17 11:42:48;;;;;;;7.82;2.90;;;26.70;93.20;;;;;;5070258;28;20533;-48
2022/06/17 11:45:32;;;;;;;7.18;3.20;;;26.70;93.50;;;;;;5069953;28;20119;-45
2022/06/17 11:48:14;;;;;;;7.80;2.88;;;26.60;92.50;;;;;;5070293;28;20036;-46
2022/06/17 11:50:58;;;;;;;9.43;3.20;;;26.70;93.30;;;;;;5069794;28;20041;-48
2022/06/17 11:53:25;;;;;;;9.60;2.80;;;26.70;91.90;;;;;;5070326;28;20041;-47
2022/06/17 11:55:51;;;;;;;10.18;3.50;;;26.80;92.80;;;;;;5069889;28;20082;-47
2022/06/17 11:58:19;;;;;;;9.05;3.13;;;27.10;93.50;;;;;;5069928;28;20036;-46
2022/06/17 12:00:51;;;;;;;10.48;2.90;;;27.40;91.20;;;;;;5070025;28;20098;-48
2022/06/17 12:03:34;;;;;;;9.75;3.13;;;27.50;92.30;;;;;;5069713;28;20110;-48
2022/06/17 12:06:03;;;;;;;7.50;3.40;;;27.30;90.20;;;;;;5069754;28;20098;-47
2022/06/17 12:08:41;;;;;;;9.50;3.30;;;27.30;91.40;;;;;;5069980;28;20036;-50
2022/06/17 12:11:14;;;;;;;6.72;2.80;;;27.30;91.20;;;;;;5069711;28;20559;-46
2022/06/17 12:13:45;;;;;;;11.00;3.20;;;27.50;91.60;;;;;;5068658;28;20094;-48
2022/06/17 12:16:19;;;;;;;9.82;3.30;;;27.40;91.60;;;;;;5069241;28;20043;-47
2022/06/17 12:18:58;;;;;;;8.38;3.17;;;27.40;92.10;;;;;;5069884;28;20037;-49
2022/06/17 12:21:34;;;;;;;5.78;2.92;;;27.40;91.80;;;;;;5070017;28;20048;-46
2022/06/17 12:24:23;;;;;;;7.95;3.30;;;27.30;90.80;;;;;;5050628;28;20132;-46
2022/06/17 12:27:07;;;;;;;17.65;3.50;;;27.30;91.10;;;;;;5069699;28;20041;-45
2022/06/17 12:29:38;;;;;;;6.07;2.83;;;27.60;91.30;;;;;;5069750;28;20051;-48
2022/06/17 12:32:14;;;;;;;11.70;3.28;;;27.80;91.50;;;;;;5051840;28;20040;-46
2022/06/17 12:34:43;;;;;;;10.55;3.10;;;27.90;90.10;;;;;;5051910;28;20154;-46
2022/06/17 12:37:25;;;;;;;6.32;3.38;;;28.10;91.10;;;;;;5069878;28;20044;-50
2022/06/17 12:40:05;;;;;;;8.32;2.80;;;28.20;90.80;;;;;;5069458;28;20037;-46
2022/06/17 12:42:42;;;;;;;6.68;3.08;;;28.40;90.80;;;;;;5052303;28;20037;-45
2022/06/17 12:45:53;;;;;;;6.03;2.88;;;28.70;90.00;;;;;;5073783;28;20429;-45
2022/06/17 12:48:39;;;;;;;7.50;2.53;;;28.80;90.10;;;;;;4972103;28;20045;-48
2022/06/17 12:54:16;;;;;;;16.77;2.83;;;29.10;87.50;;;;;;5058675;28;20071;-50
2022/06/17 12:57:12;;;;;;;5.78;2.53;;;28.80;86.20;;;;;;5073364;28;20036;-46
2022/06/17 12:59:52;;;;;;;6.47;2.50;;;28.90;86.20;;;;;;5073584;28;20047;-46
2022/06/17 13:02:26;;;;;;;6.40;2.47;;;28.80;88.00;;;;;;5073333;28;20510;-45
2022/06/17 13:05:13;;;;;;;4.97;2.45;;;28.80;87.30;;;;;;5073277;28;20033;-50
2022/06/17 13:08:00;;;;;;;6.70;2.50;;;28.60;86.90;;;;;;5073127;28;20472;-48
2022/06/17 13:10:40;;;;;;;6.47;2.95;;;28.60;84.50;;;;;;5073088;28;20040;-46
2022/06/17 13:13:08;;;;;;;7.18;2.38;;;28.60;84.70;;;;;;5073160;28;20044;-46
2022/06/17 13:15:43;;;;;;;6.43;2.55;;;28.90;86.30;;;;;;5072165;28;20041;-48